Time,TemperatureF,DewpointF,PressureIn,WindDirection,WindDirectionDegrees,WindSpeedMPH,WindSpeedGustMPH,Humidity,HourlyPrecipIn,Conditions,Clouds,dailyrainin,SolarRadiationWatts/m^2,SoftwareType,DateUTC
2013-01-28 00:08:00,33.2,26.0,30.13,West,262,7.0,-999.0,76,-99.99,,,0.00,0,weatherlink.com 1.10,2013-01-28 08:08:00,
2013-01-28 00:23:00,33.3,27.0,30.13,West,281,6.0,-999.0,76,-99.99,,,0.00,0,weatherlink.com 1.10,2013-01-28 08:23:00,
2013-01-28 00:38:00,33.3,27.0,30.14,West,266,7.0,-999.0,77,-99.99,,,0.00,0,weatherlink.com 1.10,2013-01-28 08:38:00,
2013-01-28 00:53:00,33.3,27.0,30.14,West,273,4.0,-999.0,77,-99.99,,,0.00,0,weatherlink.com 1.10,2013-01-28 08:53:00,
2013-01-28 01:08:00,33.3,27.0,30.14,NW,309,4.0,-999.0,77,-99.99,,,0.00,0,weatherlink.com 1.10,2013-01-28 09:08:00,
2013-01-28 01:23:00,33.2,26.0,30.14,West,267,5.0,-999.0,75,-99.99,,,0.00,0,weatherlink.com 1.10,2013-01-28 09:23:00,
2013-01-28 01:38:00,32.8,26.0,30.14,West,280,3.0,-999.0,75,-99.99,,,0.00,0,weatherlink.com 1.10,2013-01-28 09:38:00,
2013-01-28 01:53:00,32.8,26.0,30.14,WSW,246,5.0,-999.0,76,-99.99,,,0.00,0,weatherlink.com 1.10,2013-01-28 09:53:00,
2013-01-28 02:08:00,32.7,26.0,30.14,WSW,256,6.0,-999.0,77,-99.99,,,0.00,0,weatherlink.com 1.10,2013-01-28 10:08:00,
2013-01-28 02:23:00,32.4,26.0,30.14,West,269,4.0,-999.0,77,-99.99,,,0.00,0,weatherlink.com 1.10,2013-01-28 10:23:00,
2013-01-28 02:38:00,32.2,26.0,30.15,West,267,3.0,-999.0,79,-99.99,,,0.00,0,weatherlink.com 1.10,2013-01-28 10:38:00,
2013-01-28 02:53:00,32.2,26.0,30.16,West,272,6.0,-999.0,79,-99.99,,,0.00,0,weatherlink.com 1.10,2013-01-28 10:53:00,
2013-01-28 03:08:00,32.1,26.0,30.15,West,273,3.0,-999.0,79,-99.99,,,0.00,0,weatherlink.com 1.10,2013-01-28 11:08:00,
2013-01-28 03:23:00,32.0,26.0,30.15,WNW,296,5.0,-999.0,77,-99.99,,,0.00,0,weatherlink.com 1.10,2013-01-28 11:23:00,
2013-01-28 03:38:00,32.3,26.0,30.14,West,266,4.0,-999.0,78,-99.99,,,0.00,0,weatherlink.com 1.10,2013-01-28 11:38:00,
2013-01-28 03:53:00,32.1,26.0,30.13,WSW,244,5.0,-999.0,78,-99.99,,,0.00,0,weatherlink.com 1.10,2013-01-28 11:53:00,
2013-01-28 04:08:00,31.9,26.0,30.13,West,273,2.0,-999.0,79,-99.99,,,0.00,0,weatherlink.com 1.10,2013-01-28 12:08:00,
2013-01-28 04:23:00,31.7,26.0,30.13,West,267,3.0,-999.0,80,-99.99,,,0.00,0,weatherlink.com 1.10,2013-01-28 12:23:00,
2013-01-28 04:38:00,31.7,26.0,30.13,WSW,253,2.0,-999.0,79,-99.99,,,0.00,0,weatherlink.com 1.10,2013-01-28 12:38:00,
2013-01-28 04:53:00,31.6,26.0,30.13,NNW,330,10.0,-999.0,79,-99.99,,,0.00,0,weatherlink.com 1.10,2013-01-28 12:53:00,
2013-01-28 05:08:00,31.8,26.0,30.13,WNW,289,5.0,-999.0,79,-99.99,,,0.00,0,weatherlink.com 1.10,2013-01-28 13:08:00,
2013-01-28 05:23:00,32.0,26.0,30.14,West,277,7.0,-999.0,79,-99.99,,,0.00,0,weatherlink.com 1.10,2013-01-28 13:23:00,
2013-01-28 05:38:00,32.1,26.0,30.14,NW,308,4.0,-999.0,79,-99.99,,,0.00,0,weatherlink.com 1.10,2013-01-28 13:38:00,
2013-01-28 05:53:00,32.1,26.0,30.14,West,281,5.0,-999.0,79,-99.99,,,0.00,0,weatherlink.com 1.10,2013-01-28 13:53:00,
2013-01-28 06:23:00,32.1,27.0,30.15,NNW,327,6.0,-999.0,80,-99.99,,,0.00,0,weatherlink.com 1.10,2013-01-28 14:23:00,
2013-01-28 06:38:00,32.1,27.0,30.15,NW,319,11.0,-999.0,80,-99.99,,,0.00,0,weatherlink.com 1.10,2013-01-28 14:38:00,
2013-01-28 06:53:00,32.2,26.0,30.15,WNW,296,7.0,-999.0,79,-99.99,,,0.00,0,weatherlink.com 1.10,2013-01-28 14:53:00,
2013-01-28 07:09:00,32.4,26.0,30.16,NNW,335,10.0,-999.0,77,-99.99,,,0.00,0,weatherlink.com 1.10,2013-01-28 15:09:00,
2013-01-28 07:24:00,32.4,26.0,30.16,NW,319,8.0,-999.0,77,-99.99,,,0.00,0,weatherlink.com 1.10,2013-01-28 15:24:00,
2013-01-28 07:39:00,32.3,26.0,30.17,NW,323,8.0,-999.0,77,-99.99,,,0.00,11,weatherlink.com 1.10,2013-01-28 15:39:00,
2013-01-28 07:54:00,32.2,26.0,30.17,NNW,336,5.0,-999.0,77,-99.99,,,0.00,14,weatherlink.com 1.10,2013-01-28 15:54:00,
2013-01-28 08:09:00,32.2,26.0,30.17,NW,320,7.0,-999.0,77,-99.99,,,0.00,18,weatherlink.com 1.10,2013-01-28 16:09:00,
2013-01-28 08:24:00,32.4,26.0,30.18,NNW,342,11.0,-999.0,76,-99.99,,,0.00,18,weatherlink.com 1.10,2013-01-28 16:24:00,
2013-01-28 08:39:00,32.1,26.0,30.18,NW,319,8.0,-999.0,78,-99.99,,,0.00,35,weatherlink.com 1.10,2013-01-28 16:39:00,
2013-01-28 08:54:00,32.0,26.0,30.19,NW,323,8.0,-999.0,78,-99.99,,,0.00,35,weatherlink.com 1.10,2013-01-28 16:54:00,
2013-01-28 09:09:00,32.0,26.0,30.20,NNW,339,14.0,-999.0,78,-99.99,,,0.00,32,weatherlink.com 1.10,2013-01-28 17:09:00,
2013-01-28 09:24:00,32.1,26.0,30.20,NW,318,7.0,-999.0,78,-99.99,,,0.00,51,weatherlink.com 1.10,2013-01-28 17:24:00,
2013-01-28 09:39:00,32.2,26.0,30.21,NW,320,15.0,-999.0,78,-99.99,,,0.00,67,weatherlink.com 1.10,2013-01-28 17:39:00,
2013-01-28 09:54:00,32.4,26.0,30.22,NW,311,5.0,-999.0,78,-99.99,,,0.00,51,weatherlink.com 1.10,2013-01-28 17:54:00,
2013-01-28 10:09:00,32.5,26.0,30.22,NW,322,10.0,-999.0,78,-99.99,,,0.00,70,weatherlink.com 1.10,2013-01-28 18:09:00,
2013-01-28 10:24:00,32.7,26.0,30.22,NW,313,10.0,-999.0,77,-99.99,,,0.00,76,weatherlink.com 1.10,2013-01-28 18:24:00,
2013-01-28 10:39:00,32.9,26.0,30.23,WNW,293,6.0,-999.0,76,-99.99,,,0.00,102,weatherlink.com 1.10,2013-01-28 18:39:00,
2013-01-28 10:54:00,33.0,27.0,30.23,NW,323,7.0,-999.0,77,-99.99,,,0.00,79,weatherlink.com 1.10,2013-01-28 18:54:00,
2013-01-28 11:09:00,32.6,26.0,30.23,WNW,284,6.0,-999.0,78,-99.99,,,0.00,70,weatherlink.com 1.10,2013-01-28 19:09:00,
2013-01-28 11:24:00,32.5,27.0,30.23,West,281,11.0,-999.0,79,-99.99,,,0.00,86,weatherlink.com 1.10,2013-01-28 19:24:00,
2013-01-28 11:39:00,32.4,27.0,30.24,NW,304,4.0,-999.0,80,-99.99,,,0.00,84,weatherlink.com 1.10,2013-01-28 19:39:00,
2013-01-28 11:54:00,32.5,27.0,30.23,WNW,291,4.0,-999.0,81,-99.99,,,0.00,195,weatherlink.com 1.10,2013-01-28 19:54:00,
2013-01-28 12:09:00,33.0,27.0,30.23,NNW,338,12.0,-999.0,80,-99.99,,,0.00,146,weatherlink.com 1.10,2013-01-28 20:09:00,
2013-01-28 12:24:00,33.3,27.0,30.24,NNW,327,8.0,-999.0,76,-99.99,,,0.00,114,weatherlink.com 1.10,2013-01-28 20:24:00,
2013-01-28 12:39:00,33.6,26.0,30.23,NW,315,8.0,-999.0,74,-99.99,,,0.00,193,weatherlink.com 1.10,2013-01-28 20:39:00,
2013-01-28 12:54:00,34.1,27.0,30.23,NNW,335,11.0,-999.0,74,-99.99,,,0.00,113,weatherlink.com 1.10,2013-01-28 20:54:00,
2013-01-28 13:09:00,34.2,26.0,30.23,NNW,328,7.0,-999.0,72,-99.99,,,0.00,95,weatherlink.com 1.10,2013-01-28 21:09:00,
2013-01-28 13:24:00,34.3,26.0,30.23,NW,324,6.0,-999.0,71,-99.99,,,0.00,91,weatherlink.com 1.10,2013-01-28 21:24:00,
2013-01-28 13:39:00,34.3,26.0,30.23,NW,321,8.0,-999.0,72,-99.99,,,0.00,125,weatherlink.com 1.10,2013-01-28 21:39:00,
2013-01-28 13:54:00,34.4,26.0,30.23,NNW,329,6.0,-999.0,70,-99.99,,,0.00,98,weatherlink.com 1.10,2013-01-28 21:54:00,
2013-01-28 14:09:00,34.6,25.0,30.23,NW,313,9.0,-999.0,69,-99.99,,,0.00,123,weatherlink.com 1.10,2013-01-28 22:09:00,
2013-01-28 14:25:00,34.9,25.0,30.23,NW,309,3.0,-999.0,68,-99.99,,,0.00,107,weatherlink.com 1.10,2013-01-28 22:25:00,
2013-01-28 14:39:00,35.2,25.0,30.24,WNW,282,11.0,-999.0,67,-99.99,,,0.00,118,weatherlink.com 1.10,2013-01-28 22:39:00,
2013-01-28 14:54:00,35.1,25.0,30.24,West,275,8.0,-999.0,67,-99.99,,,0.00,105,weatherlink.com 1.10,2013-01-28 22:54:00,
2013-01-28 15:10:00,35.3,25.0,30.24,NW,318,14.0,-999.0,66,-99.99,,,0.00,151,weatherlink.com 1.10,2013-01-28 23:10:00,
2013-01-28 15:25:00,35.1,24.0,30.25,NW,311,2.0,-999.0,65,-99.99,,,0.00,72,weatherlink.com 1.10,2013-01-28 23:25:00,
2013-01-28 15:39:00,35.1,25.0,30.25,WSW,242,6.0,-999.0,68,-99.99,,,0.00,58,weatherlink.com 1.10,2013-01-28 23:39:00,
2013-01-28 15:54:00,35.0,26.0,30.25,NW,312,4.0,-999.0,69,-99.99,,,0.00,32,weatherlink.com 1.10,2013-01-28 23:54:00,
2013-01-28 16:10:00,34.9,26.0,30.25,West,281,3.0,-999.0,71,-99.99,,,0.00,35,weatherlink.com 1.10,2013-01-29 00:10:00,
2013-01-28 16:24:00,34.7,26.0,30.25,West,263,6.0,-999.0,70,-99.99,,,0.00,47,weatherlink.com 1.10,2013-01-29 00:24:00,
2013-01-28 16:39:00,34.8,25.0,30.25,West,261,5.0,-999.0,67,-99.99,,,0.00,37,weatherlink.com 1.10,2013-01-29 00:39:00,
2013-01-28 16:54:00,34.4,25.0,30.26,West,276,6.0,-999.0,69,-99.99,,,0.00,11,weatherlink.com 1.10,2013-01-29 00:54:00,
2013-01-28 17:10:00,34.1,26.0,30.26,WSW,257,9.0,-999.0,71,-99.99,,,0.00,0,weatherlink.com 1.10,2013-01-29 01:10:00,
2013-01-28 17:24:00,33.9,25.0,30.26,West,273,2.0,-999.0,71,-99.99,,,0.00,0,weatherlink.com 1.10,2013-01-29 01:24:00,
2013-01-28 17:39:00,33.8,26.0,30.27,West,261,4.0,-999.0,73,-99.99,,,0.00,0,weatherlink.com 1.10,2013-01-29 01:39:00,
2013-01-28 17:54:00,33.5,26.0,30.28,WSW,253,4.0,-999.0,75,-99.99,,,0.00,0,weatherlink.com 1.10,2013-01-29 01:54:00,
2013-01-28 18:10:00,33.3,26.0,30.28,West,259,3.0,-999.0,75,-99.99,,,0.00,0,weatherlink.com 1.10,2013-01-29 02:10:00,
2013-01-28 18:25:00,32.9,26.0,30.29,West,261,4.0,-999.0,77,-99.99,,,0.00,0,weatherlink.com 1.10,2013-01-29 02:25:00,
2013-01-28 18:40:00,33.0,27.0,30.29,WSW,248,4.0,-999.0,78,-99.99,,,0.00,0,weatherlink.com 1.10,2013-01-29 02:40:00,
2013-01-28 18:55:00,33.0,27.0,30.29,WSW,247,7.0,-999.0,78,-99.99,,,0.00,0,weatherlink.com 1.10,2013-01-29 02:55:00,
2013-01-28 19:10:00,33.0,27.0,30.29,WSW,244,5.0,-999.0,79,-99.99,,,0.00,0,weatherlink.com 1.10,2013-01-29 03:10:00,
2013-01-28 19:25:00,33.0,27.0,30.30,WSW,249,3.0,-999.0,79,-99.99,,,0.00,0,weatherlink.com 1.10,2013-01-29 03:25:00,
2013-01-28 19:40:00,32.9,27.0,30.30,WSW,257,5.0,-999.0,79,-99.99,,,0.00,0,weatherlink.com 1.10,2013-01-29 03:40:00,
2013-01-28 19:55:00,32.4,27.0,30.30,WSW,250,4.0,-999.0,79,-99.99,,,0.00,0,weatherlink.com 1.10,2013-01-29 03:55:00,
2013-01-28 20:10:00,32.0,26.0,30.30,West,270,5.0,-999.0,79,-99.99,,,0.00,0,weatherlink.com 1.10,2013-01-29 04:10:00,
2013-01-28 20:25:00,31.9,26.0,30.30,West,268,3.0,-999.0,80,-99.99,,,0.00,0,weatherlink.com 1.10,2013-01-29 04:25:00,
2013-01-28 20:40:00,31.8,26.0,30.30,WSW,244,5.0,-999.0,80,-99.99,,,0.00,0,weatherlink.com 1.10,2013-01-29 04:40:00,
2013-01-28 20:55:00,31.7,26.0,30.30,West,261,5.0,-999.0,80,-99.99,,,0.00,0,weatherlink.com 1.10,2013-01-29 04:55:00,
2013-01-28 21:10:00,31.6,26.0,30.31,West,267,6.0,-999.0,80,-99.99,,,0.00,0,weatherlink.com 1.10,2013-01-29 05:10:00,
2013-01-28 21:25:00,31.7,26.0,30.30,West,265,6.0,-999.0,80,-99.99,,,0.00,0,weatherlink.com 1.10,2013-01-29 05:25:00,
2013-01-28 21:40:00,31.6,26.0,30.30,West,273,10.0,-999.0,80,-99.99,,,0.00,0,weatherlink.com 1.10,2013-01-29 05:40:00,
2013-01-28 21:55:00,31.7,26.0,30.30,West,278,5.0,-999.0,80,-99.99,,,0.00,0,weatherlink.com 1.10,2013-01-29 05:55:00,
2013-01-28 22:10:00,31.7,26.0,30.30,WSW,258,6.0,-999.0,79,-99.99,,,0.00,0,weatherlink.com 1.10,2013-01-29 06:10:00,
2013-01-28 22:25:00,31.5,26.0,30.30,WNW,301,4.0,-999.0,80,-99.99,,,0.00,0,weatherlink.com 1.10,2013-01-29 06:25:00,
2013-01-28 22:40:00,31.7,26.0,30.30,West,273,7.0,-999.0,80,-99.99,,,0.00,0,weatherlink.com 1.10,2013-01-29 06:40:00,
2013-01-28 22:55:00,32.0,27.0,30.31,WNW,284,3.0,-999.0,80,-99.99,,,0.00,0,weatherlink.com 1.10,2013-01-29 06:55:00,
2013-01-28 23:10:00,32.6,27.0,30.31,West,275,4.0,-999.0,80,-99.99,,,0.00,0,weatherlink.com 1.10,2013-01-29 07:10:00,
2013-01-28 23:25:00,32.9,27.0,30.31,West,277,7.0,-999.0,79,-99.99,,,0.00,0,weatherlink.com 1.10,2013-01-29 07:25:00,
2013-01-28 23:40:00,33.1,27.0,30.31,West,272,8.0,-999.0,79,-99.99,,,0.00,0,weatherlink.com 1.10,2013-01-29 07:40:00,
2013-01-28 23:55:00,33.2,27.0,30.32,West,270,10.0,-999.0,79,-99.99,,,0.00,0,weatherlink.com 1.10,2013-01-29 07:55:00,